Time;durP1;ratioP1;P1;durP2;ratioP2;P2;SDS_P1;SDS_P2;PMS_P1;PMS_P2;Temp;Humidity;BMP_temperature;BMP_pressure;BME280_temperature;BME280_humidity;BME280_pressure;Samples;Min_cycle;Max_cycle;Signal;HPM_P1;HPM_P2
2023/02/24 00:01:50;;;;;;;18.38;4.28;;;5.80;83.30;;;;;;5047359;28;20492;-77
2023/02/24 00:04:16;;;;;;;18.60;4.40;;;5.70;83.40;;;;;;5043216;28;20440;-77
2023/02/24 00:06:42;;;;;;;17.77;5.05;;;5.70;83.60;;;;;;5030200;28;20425;-77
2023/02/24 00:09:16;;;;;;;19.67;4.15;;;5.70;83.80;;;;;;5030734;28;20040;-77
2023/02/24 00:11:51;;;;;;;15.65;4.30;;;5.60;84.00;;;;;;5046499;28;20041;-77
2023/02/24 00:14:17;;;;;;;24.42;4.68;;;5.50;84.20;;;;;;5048836;28;20017;-77
2023/02/24 00:16:44;;;;;;;23.02;4.75;;;5.50;84.40;;;;;;5047743;28;20121;-77
2023/02/24 00:19:15;;;;;;;20.25;5.30;;;5.50;84.70;;;;;;5048386;28;20048;-78
2023/02/24 00:21:42;;;;;;;18.90;4.80;;;5.50;84.90;;;;;;5047789;28;20037;-78
2023/02/24 00:24:08;;;;;;;25.17;4.90;;;5.40;85.00;;;;;;5048909;28;20033;-77
2023/02/24 00:26:34;;;;;;;18.70;3.83;;;5.40;85.20;;;;;;5050506;28;20037;-77
2023/02/24 00:29:02;;;;;;;16.77;4.60;;;5.30;85.30;;;;;;5047277;28;20118;-77
2023/02/24 00:31:29;;;;;;;16.77;4.82;;;5.30;85.50;;;;;;5050861;28;20481;-77
2023/02/24 00:33:56;;;;;;;18.05;5.57;;;5.30;85.60;;;;;;5051484;28;20024;-77
2023/02/24 00:36:22;;;;;;;16.48;4.22;;;5.30;85.70;;;;;;5049955;28;20082;-77
2023/02/24 00:38:56;;;;;;;19.65;4.35;;;5.20;85.60;;;;;;5047887;28;20020;-77
2023/02/24 00:41:28;;;;;;;14.82;3.75;;;5.20;85.50;;;;;;5027903;28;20115;-77
2023/02/24 00:44:05;;;;;;;16.67;5.00;;;5.20;85.40;;;;;;5031763;28;20052;-77
2023/02/24 00:46:34;;;;;;;20.50;4.50;;;5.20;85.40;;;;;;5045265;28;20607;-77
2023/02/24 00:49:04;;;;;;;16.42;4.35;;;5.20;85.30;;;;;;5048885;28;20033;-77
2023/02/24 00:51:34;;;;;;;16.38;4.25;;;5.20;85.40;;;;;;5047401;28;20033;-77
2023/02/24 00:54:00;;;;;;;20.90;4.43;;;5.20;85.50;;;;;;5030228;28;20036;-77
2023/02/24 00:56:27;;;;;;;18.55;4.05;;;5.20;85.60;;;;;;5050685;28;20469;-78
2023/02/24 00:58:54;;;;;;;14.70;3.72;;;5.20;85.60;;;;;;5048350;28;20477;-77
2023/02/24 01:01:23;;;;;;;16.30;4.25;;;5.20;85.70;;;;;;5048547;28;20393;-77
2023/02/24 01:03:49;;;;;;;17.92;4.93;;;5.30;85.60;;;;;;5048827;28;20075;-77
2023/02/24 01:06:20;;;;;;;15.55;4.35;;;5.30;85.60;;;;;;5048181;28;20481;-77
2023/02/24 01:08:50;;;;;;;20.70;4.68;;;5.30;85.50;;;;;;5047189;28;20029;-77
2023/02/24 01:14:08;;;;;;;14.00;4.55;;;5.40;85.30;;;;;;5048137;28;20423;-77
2023/02/24 01:16:34;;;;;;;17.98;3.63;;;5.30;85.20;;;;;;5043092;28;20036;-77
2023/02/24 01:19:01;;;;;;;18.17;4.75;;;5.40;85.20;;;;;;5048782;28;20441;-77
2023/02/24 01:21:26;;;;;;;15.23;4.30;;;5.40;85.00;;;;;;5027947;28;20135;-76
2023/02/24 01:23:53;;;;;;;18.75;4.25;;;5.40;85.00;;;;;;5047188;28;20268;-77
2023/02/24 01:26:19;;;;;;;17.65;3.65;;;5.40;85.10;;;;;;5047171;28;20032;-76
2023/02/24 01:28:45;;;;;;;17.02;3.72;;;5.50;85.20;;;;;;5053875;28;20040;-77
2023/02/24 01:31:15;;;;;;;11.65;3.47;;;5.60;85.30;;;;;;5041115;28;20044;-77
2023/02/24 01:33:44;;;;;;;14.77;3.83;;;5.60;85.30;;;;;;5048197;28;20033;-77
2023/02/24 01:36:24;;;;;;;16.10;3.88;;;5.60;85.40;;;;;;5052059;28;20025;-75
2023/02/24 01:38:51;;;;;;;16.98;4.32;;;5.60;85.40;;;;;;5049068;28;20098;-77
2023/02/24 01:41:26;;;;;;;14.27;3.63;;;5.60;85.40;;;;;;5050169;28;20110;-77
2023/02/24 01:44:31;;;;;;;18.13;4.50;;;5.60;85.40;;;;;;5049489;28;20033;-77
2023/02/24 01:47:00;;;;;;;9.48;3.78;;;5.70;85.20;;;;;;5048230;28;20057;-77
2023/02/24 01:49:28;;;;;;;18.13;4.88;;;5.60;85.00;;;;;;5047991;28;20039;-77
2023/02/24 01:52:07;;;;;;;20.02;4.38;;;5.60;84.90;;;;;;5043816;28;20527;-77
2023/02/24 01:54:43;;;;;;;15.65;4.07;;;5.70;84.80;;;;;;5049732;28;20017;-76
2023/02/24 01:57:12;;;;;;;14.73;3.53;;;5.70;84.90;;;;;;5029271;28;20044;-76
2023/02/24 01:59:38;;;;;;;16.23;4.38;;;5.60;84.80;;;;;;5056075;28;20555;-77
2023/02/24 02:02:06;;;;;;;17.63;4.38;;;5.70;84.80;;;;;;5046164;28;20025;-77
2023/02/24 02:04:32;;;;;;;13.10;3.50;;;5.70;84.70;;;;;;5049692;28;20425;-77
2023/02/24 02:06:59;;;;;;;15.60;3.78;;;5.70;84.70;;;;;;5049016;28;20040;-77
2023/02/24 02:09:26;;;;;;;15.32;3.78;;;5.70;84.70;;;;;;5047762;28;20028;-77
2023/02/24 02:11:52;;;;;;;12.10;3.65;;;5.70;84.50;;;;;;5049861;28;20040;-77
2023/02/24 02:14:21;;;;;;;19.23;3.78;;;5.80;84.40;;;;;;5050882;28;20466;-76
2023/02/24 02:17:07;;;;;;;13.43;3.35;;;5.80;84.30;;;;;;5043814;28;20123;-77
2023/02/24 02:19:44;;;;;;;;;;;5.80;84.30;;;;;;5058813;28;20086;-77
2023/02/24 02:22:44;;;;;;;15.48;4.10;;;5.80;84.20;;;;;;5049423;28;20018;-77
2023/02/24 02:25:09;;;;;;;11.80;3.55;;;5.80;84.10;;;;;;5046445;28;20032;-77
2023/02/24 02:28:13;;;;;;;15.77;4.15;;;5.80;84.10;;;;;;5050899;28;20086;-77
2023/02/24 02:31:16;;;;;;;15.05;4.35;;;5.80;84.20;;;;;;5049563;28;20430;-76
2023/02/24 02:34:11;;;;;;;17.98;3.92;;;5.80;84.30;;;;;;5013093;28;20068;-77
2023/02/24 02:36:50;;;;;;;11.68;3.33;;;5.90;84.30;;;;;;5046037;28;20447;-77
2023/02/24 02:39:38;;;;;;;18.88;5.93;;;5.80;84.20;;;;;;5052896;28;20025;-77
2023/02/24 02:42:18;;;;;;;12.68;4.07;;;5.80;84.10;;;;;;5044281;28;20116;-77
2023/02/24 02:44:54;;;;;;;14.73;4.20;;;5.80;84.10;;;;;;5053764;28;20073;-75
2023/02/24 02:47:26;;;;;;;23.23;5.13;;;5.80;84.10;;;;;;5058399;28;20164;-75
2023/02/24 02:49:57;;;;;;;16.52;4.15;;;5.90;84.00;;;;;;5053265;28;20133;-77
2023/02/24 02:52:36;;;;;;;15.32;3.88;;;5.80;84.10;;;;;;5052204;28;20648;-76
2023/02/24 02:55:12;;;;;;;15.90;3.65;;;5.80;84.20;;;;;;5052181;28;20028;-76
2023/02/24 02:57:46;;;;;;;12.43;3.92;;;5.80;84.20;;;;;;5049147;28;20124;-76
2023/02/24 03:00:22;;;;;;;16.60;4.45;;;5.90;84.10;;;;;;5034085;28;20128;-76
2023/02/24 03:02:51;;;;;;;16.40;4.13;;;5.80;84.10;;;;;;5053326;28;20033;-76
2023/02/24 03:05:20;;;;;;;17.50;4.40;;;5.80;84.20;;;;;;5050566;28;20025;-77
2023/02/24 03:07:51;;;;;;;14.13;4.20;;;5.80;84.30;;;;;;5049853;28;20049;-76
2023/02/24 03:10:26;;;;;;;17.05;4.55;;;5.80;84.30;;;;;;5058212;28;20496;-77
2023/02/24 03:12:54;;;;;;;15.95;4.18;;;5.70;84.30;;;;;;5046903;28;20602;-76
2023/02/24 03:15:22;;;;;;;17.25;4.38;;;5.70;84.10;;;;;;5047490;28;20029;-76
2023/02/24 03:17:54;;;;;;;12.88;4.22;;;5.70;84.30;;;;;;5052673;28;20674;-77
2023/02/24 03:20:31;;;;;;;14.18;3.78;;;5.70;84.40;;;;;;5032888;28;20065;-76
2023/02/24 03:23:15;;;;;;;16.48;4.30;;;5.70;84.40;;;;;;5032827;28;20067;-76
2023/02/24 03:26:02;;;;;;;21.60;4.25;;;5.70;84.20;;;;;;5050591;28;20061;-76
2023/02/24 03:28:40;;;;;;;14.20;3.65;;;5.70;84.00;;;;;;5038751;28;20052;-76
2023/02/24 03:31:08;;;;;;;12.65;3.90;;;5.70;83.80;;;;;;5049011;28;20121;-75
2023/02/24 03:33:53;;;;;;;14.27;3.80;;;5.60;83.90;;;;;;5051925;28;20039;-77
2023/02/24 03:36:19;;;;;;;15.85;3.58;;;5.60;84.10;;;;;;5037129;28;20389;-76
2023/02/24 03:38:49;;;;;;;13.23;3.75;;;5.60;84.10;;;;;;5052196;28;20476;-76
2023/02/24 03:41:15;;;;;;;11.48;3.70;;;5.60;84.30;;;;;;5039449;28;20045;-77
2023/02/24 03:43:45;;;;;;;16.05;4.05;;;5.60;84.30;;;;;;5052419;28;20461;-76
2023/02/24 03:46:12;;;;;;;16.70;4.25;;;5.60;84.50;;;;;;5037580;28;20370;-76
2023/02/24 03:48:43;;;;;;;13.48;4.28;;;5.50;84.50;;;;;;5056356;28;20132;-76
2023/02/24 03:51:17;;;;;;;14.82;3.90;;;5.50;84.40;;;;;;5048821;28;20766;-76
2023/02/24 03:53:55;;;;;;;12.83;3.30;;;5.40;84.40;;;;;;5050709;28;20367;-75
2023/02/24 03:56:39;;;;;;;12.38;3.50;;;5.40;84.40;;;;;;5054276;28;20033;-75
2023/02/24 03:59:17;;;;;;;16.25;3.80;;;5.40;84.40;;;;;;5053907;28;20078;-77
2023/02/24 04:01:56;;;;;;;13.65;4.55;;;5.30;84.40;;;;;;5046780;28;20375;-77
2023/02/24 04:04:44;;;;;;;13.80;3.85;;;5.30;84.40;;;;;;5042281;28;20111;-77
2023/02/24 04:07:25;;;;;;;12.70;4.20;;;5.30;84.50;;;;;;5030263;28;20201;-77
2023/02/24 04:10:08;;;;;;;15.00;4.03;;;5.20;84.60;;;;;;5034369;28;20036;-78
2023/02/24 04:12:45;;;;;;;13.55;3.47;;;5.20;84.70;;;;;;5057502;28;20033;-78
2023/02/24 04:15:23;;;;;;;13.32;3.53;;;5.10;84.80;;;;;;5027698;28;20033;-77
2023/02/24 04:18:06;;;;;;;19.15;3.97;;;5.10;84.90;;;;;;5054851;28;20057;-78
2023/02/24 04:20:33;;;;;;;14.32;3.47;;;5.10;84.90;;;;;;5048782;28;20029;-77
2023/02/24 04:23:07;;;;;;;14.73;3.72;;;5.00;85.00;;;;;;5028989;28;20376;-77
2023/02/24 04:25:33;;;;;;;10.98;3.35;;;5.00;85.00;;;;;;5041088;28;20032;-77
2023/02/24 04:28:02;;;;;;;12.15;3.50;;;4.90;84.90;;;;;;5051452;28;20044;-77
2023/02/24 04:30:33;;;;;;;14.13;3.63;;;4.90;85.00;;;;;;5051280;28;20157;-77
2023/02/24 04:32:58;;;;;;;15.75;4.18;;;4.80;85.10;;;;;;5050649;28;20416;-77
2023/02/24 04:35:25;;;;;;;15.75;3.70;;;4.80;85.20;;;;;;5054140;28;20094;-78
2023/02/24 04:37:51;;;;;;;13.95;3.33;;;4.70;85.20;;;;;;5037225;28;20056;-77
2023/02/24 04:40:20;;;;;;;11.85;3.30;;;4.70;85.10;;;;;;5050294;28;20475;-77
2023/02/24 04:42:50;;;;;;;16.52;4.47;;;4.70;85.10;;;;;;5046520;28;20489;-77
2023/02/24 04:45:17;;;;;;;13.60;3.30;;;4.70;85.10;;;;;;5046722;28;20537;-77
2023/02/24 04:47:51;;;;;;;13.63;3.70;;;4.60;84.90;;;;;;5046714;28;20041;-77
2023/02/24 04:50:22;;;;;;;14.38;3.63;;;4.60;84.90;;;;;;5049986;28;20118;-77
2023/02/24 04:53:06;;;;;;;19.88;3.88;;;4.60;85.10;;;;;;5046905;28;20044;-77
2023/02/24 04:55:38;;;;;;;12.13;3.05;;;4.40;85.20;;;;;;5046425;28;20047;-77
2023/02/24 04:58:12;;;;;;;12.15;3.42;;;4.40;85.10;;;;;;5029117;28;20028;-77
2023/02/24 05:00:40;;;;;;;16.10;4.13;;;4.40;85.20;;;;;;5038732;28;20059;-78
2023/02/24 05:03:07;;;;;;;14.70;3.95;;;4.30;85.10;;;;;;5050899;28;20021;-77
2023/02/24 05:05:33;;;;;;;14.13;3.83;;;4.20;85.10;;;;;;5031494;28;20025;-77
2023/02/24 05:08:01;;;;;;;14.80;4.05;;;4.30;85.20;;;;;;5054108;28;20028;-78
2023/02/24 05:10:39;;;;;;;11.50;3.50;;;4.20;85.20;;;;;;5054465;28;20032;-76
2023/02/24 05:13:08;;;;;;;16.23;3.63;;;4.20;85.30;;;;;;5043883;28;20055;-77
2023/02/24 05:15:37;;;;;;;12.02;3.63;;;4.20;85.20;;;;;;5052633;28;20024;-77
2023/02/24 05:18:08;;;;;;;13.27;3.50;;;4.20;85.20;;;;;;5049652;28;20029;-77
2023/02/24 05:23:30;;;;;;;15.38;4.30;;;4.10;85.10;;;;;;5048010;28;20102;-77
2023/02/24 05:25:57;;;;;;;18.70;3.53;;;4.10;85.10;;;;;;5053957;28;20473;-76
2023/02/24 05:28:24;;;;;;;10.68;3.72;;;4.20;84.90;;;;;;5033671;28;20029;-76
2023/02/24 05:30:52;;;;;;;15.32;4.25;;;4.10;84.90;;;;;;5026275;28;20049;-76
2023/02/24 05:33:21;;;;;;;14.35;4.05;;;4.20;84.90;;;;;;5051293;28;20029;-76
2023/02/24 05:35:50;;;;;;;16.05;4.70;;;4.20;84.80;;;;;;5046877;28;20047;-76
2023/02/24 05:38:18;;;;;;;11.63;3.88;;;4.20;84.80;;;;;;5055261;28;20036;-76
2023/02/24 05:40:48;;;;;;;15.48;4.40;;;4.10;84.60;;;;;;5050829;28;20031;-76
2023/02/24 05:43:18;;;;;;;13.18;4.63;;;4.10;84.50;;;;;;5046572;28;20029;-77
2023/02/24 05:45:45;;;;;;;11.93;4.40;;;4.10;84.50;;;;;;5054082;28;20029;-76
2023/02/24 05:48:13;;;;;;;14.82;4.50;;;4.10;84.60;;;;;;5047818;28;20041;-76
2023/02/24 05:50:40;;;;;;;15.60;4.40;;;4.00;84.50;;;;;;5032068;28;20029;-76
2023/02/24 05:53:08;;;;;;;14.68;4.22;;;4.00;84.60;;;;;;5053762;28;20021;-76
2023/02/24 05:55:35;;;;;;;10.85;3.92;;;3.90;84.60;;;;;;5046743;28;20031;-76
2023/02/24 05:58:06;;;;;;;14.10;4.22;;;3.90;84.50;;;;;;5049470;28;20028;-76
2023/02/24 06:00:32;;;;;;;15.95;4.10;;;3.80;84.50;;;;;;5046628;28;20017;-76
2023/02/24 06:03:07;;;;;;;13.15;3.97;;;3.80;84.60;;;;;;5054430;28;20027;-76
2023/02/24 06:05:34;;;;;;;13.90;4.82;;;3.80;84.60;;;;;;5043838;28;20052;-76
2023/02/24 06:08:03;;;;;;;15.88;4.93;;;3.80;84.70;;;;;;5050134;28;20351;-77
2023/02/24 06:10:32;;;;;;;20.30;5.35;;;3.70;84.80;;;;;;5028006;28;20459;-76
2023/02/24 06:12:59;;;;;;;13.35;5.35;;;3.70;84.90;;;;;;5041857;28;20100;-77
2023/02/24 06:15:26;;;;;;;17.38;5.50;;;3.60;85.10;;;;;;5027426;28;20431;-77
2023/02/24 06:17:55;;;;;;;21.65;5.88;;;3.60;85.20;;;;;;5049326;28;20101;-77
2023/02/24 06:20:22;;;;;;;17.85;5.50;;;3.60;85.20;;;;;;5042332;28;20014;-77
2023/02/24 06:22:53;;;;;;;16.35;6.90;;;3.60;85.10;;;;;;5049902;28;20450;-76
2023/02/24 06:25:19;;;;;;;17.58;6.20;;;3.60;85.30;;;;;;5049405;28;20044;-76
2023/02/24 06:27:45;;;;;;;14.30;6.00;;;3.50;85.20;;;;;;5048832;28;20036;-77
2023/02/24 06:30:11;;;;;;;14.85;5.25;;;3.50;85.20;;;;;;5028383;28;20386;-78
2023/02/24 06:32:37;;;;;;;16.38;5.22;;;3.50;85.30;;;;;;5034677;28;20481;-77
2023/02/24 06:35:03;;;;;;;19.17;5.82;;;3.50;85.30;;;;;;5053319;28;20023;-76
2023/02/24 06:37:28;;;;;;;13.82;6.05;;;3.40;85.20;;;;;;5039447;28;20488;-76
2023/02/24 06:39:55;;;;;;;17.38;5.43;;;3.40;85.30;;;;;;5047636;28;20606;-76
2023/02/24 06:42:21;;;;;;;16.88;5.60;;;3.30;85.40;;;;;;5053656;28;20115;-75
2023/02/24 06:44:47;;;;;;;16.60;5.00;;;3.40;85.40;;;;;;5050302;28;20469;-78
2023/02/24 06:47:15;;;;;;;13.43;5.40;;;3.30;85.40;;;;;;5043685;28;20232;-76
2023/02/24 06:49:43;;;;;;;16.38;6.05;;;3.30;85.50;;;;;;5049524;28;20114;-77
2023/02/24 06:52:10;;;;;;;16.85;6.35;;;3.30;85.60;;;;;;5028349;28;20481;-76
2023/02/24 06:54:36;;;;;;;20.60;5.32;;;3.40;85.40;;;;;;5046712;28;20029;-76
2023/02/24 06:57:02;;;;;;;15.38;5.70;;;3.40;85.20;;;;;;5039461;28;20036;-74
2023/02/24 06:59:28;;;;;;;20.02;5.65;;;3.30;85.10;;;;;;5050290;28;20112;-76
2023/02/24 07:01:56;;;;;;;14.75;5.18;;;3.40;85.00;;;;;;5025673;28;20136;-75
2023/02/24 07:04:23;;;;;;;15.35;4.88;;;3.40;85.10;;;;;;5031157;28;20029;-75
2023/02/24 07:07:01;;;;;;;18.70;5.78;;;3.40;85.00;;;;;;5045086;28;20031;-76
2023/02/24 07:09:29;;;;;;;15.45;5.75;;;3.40;84.90;;;;;;5028173;28;20416;-75
2023/02/24 07:11:57;;;;;;;20.85;6.50;;;3.50;84.80;;;;;;5044500;28;20041;-76
2023/02/24 07:14:25;;;;;;;23.80;6.68;;;3.60;84.80;;;;;;5044574;28;20145;-75
2023/02/24 07:16:52;;;;;;;19.27;7.20;;;3.50;84.70;;;;;;5041003;28;20029;-74
2023/02/24 07:19:24;;;;;;;16.00;6.82;;;3.50;84.70;;;;;;5034012;28;20468;-75
2023/02/24 07:21:58;;;;;;;17.85;7.15;;;3.50;84.70;;;;;;5046473;28;20033;-74
2023/02/24 07:24:31;;;;;;;22.33;7.00;;;3.60;84.70;;;;;;5047369;28;20099;-77
2023/02/24 07:26:59;;;;;;;19.80;7.20;;;3.60;84.70;;;;;;5047841;28;20056;-74
2023/02/24 07:29:27;;;;;;;19.38;6.97;;;3.70;84.70;;;;;;5048649;28;20076;-76
2023/02/24 07:31:55;;;;;;;17.90;7.70;;;3.70;84.50;;;;;;5025978;28;20080;-75
2023/02/24 07:34:24;;;;;;;18.02;6.75;;;3.90;84.50;;;;;;5045583;28;20029;-75
2023/02/24 07:36:54;;;;;;;17.23;7.10;;;3.90;84.50;;;;;;5045074;28;20037;-82
2023/02/24 07:39:24;;;;;;;23.48;8.68;;;4.10;84.50;;;;;;5057506;28;20673;-83
2023/02/24 07:41:53;;;;;;;21.60;8.73;;;4.10;84.40;;;;;;5042696;28;20396;-87
2023/02/24 07:44:22;;;;;;;27.63;8.07;;;4.20;84.20;;;;;;5060195;28;20025;-86
2023/02/24 07:46:49;;;;;;;22.98;9.02;;;4.30;84.20;;;;;;5035193;28;20033;-88
2023/02/24 07:49:21;;;;;;;23.77;8.45;;;4.40;83.80;;;;;;5048192;28;20041;-87
2023/02/24 07:51:51;;;;;;;23.85;8.48;;;4.50;83.80;;;;;;5041930;28;20516;-84
2023/02/24 07:54:20;;;;;;;18.33;7.50;;;4.60;83.50;;;;;;5031709;28;20021;-85
2023/02/24 07:56:55;;;;;;;21.08;7.00;;;4.70;83.20;;;;;;5043725;28;20052;-87
2023/02/24 07:59:24;;;;;;;18.65;6.88;;;4.70;83.00;;;;;;5046710;28;20035;-88
2023/02/24 08:01:49;;;;;;;17.08;6.03;;;4.80;82.70;;;;;;5046349;28;20036;-88
2023/02/24 08:04:22;;;;;;;17.73;5.75;;;4.80;82.60;;;;;;5045848;28;20017;-87
2023/02/24 08:06:54;;;;;;;17.58;6.25;;;4.90;82.40;;;;;;5028943;28;20033;-80
2023/02/24 08:09:45;;;;;;;21.08;6.70;;;4.90;82.30;;;;;;5045751;28;20481;-82
2023/02/24 08:12:08;;;;;;;15.20;5.85;;;5.00;81.80;;;;;;5047689;28;20174;-87
2023/02/24 08:14:34;;;;;;;18.42;6.55;;;5.10;81.60;;;;;;5044644;28;20111;-82
2023/02/24 08:17:04;;;;;;;16.38;5.55;;;5.10;81.50;;;;;;5050168;28;20029;-86
2023/02/24 08:19:32;;;;;;;14.20;6.00;;;5.20;81.60;;;;;;5054322;28;20039;-81
2023/02/24 08:22:18;;;;;;;19.50;6.45;;;5.30;81.30;;;;;;5032039;28;20039;-84
2023/02/24 08:24:44;;;;;;;20.80;5.70;;;5.40;81.10;;;;;;5027901;28;20643;-83
2023/02/24 08:27:10;;;;;;;20.23;6.13;;;5.40;81.10;;;;;;5048216;28;20501;-84
2023/02/24 08:29:56;;;;;;;18.60;5.70;;;5.50;80.90;;;;;;5048582;28;20049;-82
2023/02/24 08:32:43;;;;;;;17.95;5.53;;;5.50;80.60;;;;;;5033633;28;20048;-82
2023/02/24 08:35:14;;;;;;;17.80;5.78;;;5.60;80.80;;;;;;5055496;28;20557;-84
2023/02/24 08:37:45;;;;;;;18.02;5.90;;;5.70;80.60;;;;;;5046591;28;20052;-83
2023/02/24 08:43:16;;;;;;;17.83;5.57;;;5.80;80.10;;;;;;5045623;28;20141;-83
2023/02/24 08:45:43;;;;;;;19.02;4.93;;;5.90;79.70;;;;;;5045689;28;20025;-84
2023/02/24 08:48:25;;;;;;;11.57;4.72;;;5.90;79.30;;;;;;5057060;28;20032;-84
2023/02/24 08:50:56;;;;;;;17.98;4.65;;;6.10;79.00;;;;;;5046611;28;20041;-83
2023/02/24 08:53:26;;;;;;;14.95;4.97;;;6.20;78.30;;;;;;5049758;28;20021;-84
2023/02/24 08:55:52;;;;;;;17.83;5.05;;;6.30;77.80;;;;;;5053942;28;20082;-83
2023/02/24 08:58:25;;;;;;;16.65;5.35;;;6.50;77.30;;;;;;5037167;28;20041;-80
2023/02/24 09:00:53;;;;;;;18.80;4.63;;;6.50;76.00;;;;;;5045373;28;20025;-83
2023/02/24 09:03:27;;;;;;;18.13;5.40;;;6.60;76.10;;;;;;5054559;28;20098;-80
2023/02/24 09:06:07;;;;;;;15.38;4.93;;;6.60;75.50;;;;;;5045501;28;20028;-83
2023/02/24 09:08:37;;;;;;;17.70;6.13;;;6.80;74.80;;;;;;5049175;28;20610;-82
2023/02/24 09:11:06;;;;;;;18.65;7.93;;;6.80;74.10;;;;;;5060757;28;20060;-83
2023/02/24 09:13:41;;;;;;;19.92;5.63;;;6.80;74.50;;;;;;5050182;28;20079;-82
2023/02/24 09:16:15;;;;;;;20.45;8.32;;;6.90;74.20;;;;;;5036365;28;20473;-82
2023/02/24 09:18:41;;;;;;;15.55;5.57;;;6.90;74.30;;;;;;5032111;28;20037;-83
2023/02/24 09:23:45;;;;;;;16.45;5.70;;;6.90;74.10;;;;;;5053287;28;20040;-82
2023/02/24 09:26:12;;;;;;;16.23;5.88;;;7.00;74.50;;;;;;5054461;28;20061;-83
2023/02/24 09:28:53;;;;;;;15.35;5.63;;;7.00;74.20;;;;;;5049662;28;20574;-83
2023/02/24 09:31:22;;;;;;;13.82;5.03;;;7.10;74.20;;;;;;5009706;28;20049;-84
2023/02/24 09:33:49;;;;;;;14.43;6.25;;;7.20;74.00;;;;;;5007574;28;20014;-82
2023/02/24 09:36:26;;;;;;;17.83;4.95;;;7.20;73.10;;;;;;5008847;28;20053;-83
2023/02/24 09:41:56;;;;;;;12.55;4.45;;;7.20;73.30;;;;;;5015606;28;20073;-83
2023/02/24 09:44:32;;;;;;;14.23;5.38;;;7.20;74.00;;;;;;5018285;28;20032;-82
2023/02/24 09:50:19;;;;;;;14.00;4.82;;;7.30;73.80;;;;;;5002167;28;20053;-84
2023/02/24 09:52:55;;;;;;;20.33;5.85;;;7.10;73.60;;;;;;5011814;28;20045;-84
2023/02/24 09:55:58;;;;;;;14.60;5.35;;;7.20;73.30;;;;;;5015289;28;20017;-83
2023/02/24 09:58:46;;;;;;;20.90;5.90;;;7.20;73.20;;;;;;5007373;28;20038;-83
2023/02/24 10:01:49;;;;;;;17.42;5.20;;;7.30;73.50;;;;;;5014177;28;20042;-84
2023/02/24 10:04:34;;;;;;;17.65;5.15;;;7.30;72.90;;;;;;5005371;28;20474;-83
2023/02/24 10:07:11;;;;;;;23.63;5.63;;;7.20;73.30;;;;;;5004518;28;20084;-79
2023/02/24 10:09:45;;;;;;;17.83;5.85;;;7.30;73.60;;;;;;5016960;28;20073;-82
2023/02/24 10:12:22;;;;;;;16.73;6.25;;;7.40;73.50;;;;;;5012882;28;20034;-84
2023/02/24 10:17:46;;;;;;;13.90;5.88;;;7.30;74.00;;;;;;5021405;28;20509;-81
2023/02/24 10:20:38;;;;;;;18.55;6.22;;;7.10;73.00;;;;;;5018212;28;20034;-84
2023/02/24 10:23:28;;;;;;;19.77;6.63;;;7.10;73.40;;;;;;5014630;28;20077;-84
2023/02/24 10:26:20;;;;;;;13.82;5.78;;;7.10;73.90;;;;;;5020794;28;20056;-83
2023/02/24 10:29:17;;;;;;;17.38;6.32;;;7.30;73.70;;;;;;5013309;28;20444;-82
2023/02/24 10:31:58;;;;;;;15.75;7.03;;;7.40;73.10;;;;;;5033683;28;20041;-85
2023/02/24 10:34:30;;;;;;;14.85;5.63;;;7.50;72.70;;;;;;5057657;28;20033;-84
2023/02/24 10:37:21;;;;;;;14.30;5.50;;;7.50;72.00;;;;;;5030990;28;20100;-84
2023/02/24 10:39:51;;;;;;;16.40;6.10;;;7.60;71.10;;;;;;5051738;28;20072;-83
2023/02/24 10:42:30;;;;;;;18.58;6.60;;;7.50;71.20;;;;;;5051674;28;20091;-82
2023/02/24 10:45:12;;;;;;;13.95;5.40;;;7.40;71.80;;;;;;5055110;28;20447;-84
2023/02/24 10:47:43;;;;;;;14.43;5.78;;;7.60;71.40;;;;;;5065565;28;20547;-82
2023/02/24 10:50:22;;;;;;;15.32;6.05;;;7.70;71.30;;;;;;5046156;28;20033;-83
2023/02/24 11:01:19;;;;;;;17.15;6.50;;;8.10;71.20;;;;;;5047496;28;20048;-84
2023/02/24 11:04:00;;;;;;;12.63;5.20;;;8.30;70.20;;;;;;5045169;28;20028;-84
2023/02/24 11:18:03;;;;;;;15.75;5.80;;;8.60;68.60;;;;;;5050303;28;20504;-80
2023/02/24 11:20:31;;;;;;;20.02;7.93;;;8.50;68.50;;;;;;5047970;28;20032;-80
2023/02/24 11:22:57;;;;;;;16.13;8.73;;;8.50;68.80;;;;;;5040414;28;20040;-79
2023/02/24 11:25:39;;;;;;;18.45;7.03;;;8.70;69.20;;;;;;5036759;28;20032;-81
2023/02/24 11:28:30;;;;;;;14.52;6.15;;;9.00;68.70;;;;;;5036421;28;20060;-80
2023/02/24 11:31:27;;;;;;;14.13;6.60;;;9.00;66.90;;;;;;5034356;28;20068;-80
2023/02/24 11:33:56;;;;;;;14.65;7.70;;;8.90;67.90;;;;;;5038807;28;20040;-80
2023/02/24 11:37:06;;;;;;;17.90;6.70;;;8.90;68.50;;;;;;5038751;28;20557;-79
2023/02/24 11:39:52;;;;;;;18.75;7.53;;;8.50;68.70;;;;;;5022518;28;20048;-79
2023/02/24 11:42:33;;;;;;;14.90;6.15;;;8.70;69.50;;;;;;5036647;28;20123;-80
2023/02/24 11:45:23;;;;;;;16.80;7.85;;;8.60;69.10;;;;;;5035194;28;20086;-80
2023/02/24 11:47:58;;;;;;;16.77;6.53;;;8.60;68.90;;;;;;5037063;28;20037;-80
2023/02/24 11:50:37;;;;;;;20.27;6.60;;;8.50;70.10;;;;;;5037460;28;20176;-80
2023/02/24 11:53:13;;;;;;;18.25;7.85;;;8.60;69.20;;;;;;5020720;28;20041;-81
2023/02/24 11:55:43;;;;;;;17.88;6.80;;;8.50;70.00;;;;;;5038459;28;20029;-80
2023/02/24 11:58:19;;;;;;;14.95;6.13;;;8.40;70.70;;;;;;5024496;28;20025;-80
2023/02/24 12:01:08;;;;;;;21.63;7.22;;;8.70;71.00;;;;;;5039874;28;20079;-79
2023/02/24 12:04:09;;;;;;;17.38;7.07;;;9.10;69.00;;;;;;5038580;28;20029;-79
2023/02/24 12:07:02;;;;;;;14.68;7.25;;;9.40;68.20;;;;;;5034342;28;20041;-79
2023/02/24 12:09:51;;;;;;;17.27;7.20;;;9.30;68.40;;;;;;5034417;28;20041;-81
2023/02/24 12:12:22;;;;;;;16.15;6.55;;;9.40;68.90;;;;;;5018477;28;20478;-80
2023/02/24 12:14:54;;;;;;;18.35;6.38;;;9.60;68.60;;;;;;5035058;28;20558;-80
2023/02/24 12:17:56;;;;;;;16.35;6.20;;;9.90;67.60;;;;;;5023771;28;20076;-81
2023/02/24 12:20:47;;;;;;;14.25;6.10;;;10.00;67.50;;;;;;5034617;28;20489;-80
2023/02/24 12:23:19;;;;;;;13.65;6.40;;;9.40;68.40;;;;;;5017168;28;20192;-81
2023/02/24 12:26:03;;;;;;;19.35;7.20;;;9.40;68.80;;;;;;5040461;28;20107;-79
2023/02/24 12:28:48;;;;;;;17.75;6.57;;;9.70;69.80;;;;;;5046640;28;20061;-80
2023/02/24 12:31:42;;;;;;;15.90;7.18;;;9.60;69.70;;;;;;5041258;28;20490;-79
2023/02/24 12:34:28;;;;;;;15.00;7.40;;;9.60;70.50;;;;;;5024241;28;20025;-81
2023/02/24 12:37:15;;;;;;;16.95;8.13;;;9.60;70.70;;;;;;5025889;28;20028;-78
2023/02/24 12:40:14;;;;;;;19.25;7.82;;;9.60;70.70;;;;;;5045110;28;20030;-82
2023/02/24 12:43:02;;;;;;;16.77;7.88;;;9.80;70.60;;;;;;5037584;28;20052;-80
2023/02/24 12:45:47;;;;;;;16.70;9.15;;;9.30;71.90;;;;;;5044410;28;20036;-81
2023/02/24 12:48:41;;;;;;;17.55;9.68;;;9.20;73.20;;;;;;5047592;28;20048;-80
2023/02/24 12:51:09;;;;;;;24.60;11.93;;;9.50;73.40;;;;;;5040882;28;20041;-82
2023/02/24 12:53:40;;;;;;;28.30;14.35;;;9.40;73.00;;;;;;5042370;28;20039;-80
2023/02/24 12:56:17;;;;;;;18.25;12.05;;;9.20;73.40;;;;;;5041746;28;20047;-80
2023/02/24 12:58:46;;;;;;;21.88;14.10;;;9.10;74.00;;;;;;5047138;28;20449;-81
2023/02/24 13:01:27;;;;;;;23.10;15.93;;;9.10;74.20;;;;;;5042036;28;20033;-80
2023/02/24 13:04:21;;;;;;;26.00;16.30;;;9.20;74.70;;;;;;5036892;28;20120;-79
2023/02/24 13:07:27;;;;;;;29.13;15.95;;;9.20;74.60;;;;;;5037377;28;20066;-80
2023/02/24 13:10:07;;;;;;;21.13;10.85;;;9.10;75.00;;;;;;4993093;28;20673;-80
2023/02/24 13:13:06;;;;;;;19.13;9.82;;;9.00;76.00;;;;;;5021846;28;20037;-79
2023/02/24 13:15:32;;;;;;;23.63;11.15;;;8.80;77.10;;;;;;5022465;28;20615;-80
2023/02/24 13:17:58;;;;;;;21.30;9.57;;;8.60;77.40;;;;;;5041047;28;20186;-80
2023/02/24 13:20:31;;;;;;;19.90;9.65;;;8.50;77.90;;;;;;5041333;28;20208;-81
2023/02/24 13:22:58;;;;;;;19.45;9.43;;;8.50;78.60;;;;;;5040252;28;20146;-80
2023/02/24 13:25:36;;;;;;;20.88;10.80;;;8.30;79.10;;;;;;5019130;28;20039;-79
2023/02/24 13:28:22;;;;;;;21.02;11.35;;;8.40;79.60;;;;;;5035605;28;20504;-80
2023/02/24 13:30:58;;;;;;;19.88;11.13;;;8.40;79.80;;;;;;5034001;28;20311;-81
2023/02/24 13:33:38;;;;;;;25.35;11.98;;;8.40;80.60;;;;;;5037658;28;20509;-81
2023/02/24 13:36:16;;;;;;;22.98;12.10;;;8.40;81.10;;;;;;5036487;28;20036;-81
2023/02/24 13:38:50;;;;;;;22.33;12.73;;;8.60;81.60;;;;;;5037231;28;20035;-80
2023/02/24 13:41:25;;;;;;;20.00;12.38;;;8.30;83.10;;;;;;5034485;28;20052;-80
2023/02/24 13:44:14;;;;;;;;;;;8.10;84.60;;;;;;5036484;28;20067;-79
2023/02/24 13:47:05;;;;;;;23.52;14.57;;;8.10;85.50;;;;;;5024922;28;21041;-78
2023/02/24 13:49:31;;;;;;;27.15;15.85;;;7.80;86.50;;;;;;5034924;28;20450;-79
2023/02/24 13:52:01;;;;;;;26.17;17.75;;;7.90;87.20;;;;;;5033233;28;20129;-80
2023/02/24 13:55:02;;;;;;;27.77;17.58;;;7.80;87.60;;;;;;5025196;28;20110;-81
2023/02/24 13:57:48;;;;;;;29.02;18.05;;;7.80;88.00;;;;;;5006844;28;20037;-80
2023/02/24 14:00:27;;;;;;;25.17;16.13;;;7.90;88.30;;;;;;5016121;28;20044;-80
2023/02/24 14:02:53;;;;;;;30.35;18.25;;;7.80;88.30;;;;;;5038179;28;20037;-81